Terminal Aerodrome Forecast
Issued by NWS North Platte, NE

Home | Current Version | Previous Version | Text Only | Print | Product List | Glossary Off
Versions: 1 2 3 4 5 6 7 8 9 10 11 12 13 14 15

573
FTUS43 KLBF 182320
TAFVTN
TAF
KVTN 182320Z 1900/1924 24006KT P6SM BKN250
     FM191200 24010KT P6SM BKN250
     FM191800 27012KT P6SM SCT250
     FM192100 30009KT P6SM SCT250=

USA.gov is the U.S. government's official web portal to all federal, state and local government web resources and services.